In Rescue
 
Open Full Screen Window  High Contrast Mode
April 03, 2020 1:32 AM EDT
Weather Information
Wind Direction
  ---
Wind Speed
  00 kt (0 mph)
Wind Gust
  00 kt (0 mph)
Altimeter
30.12 in
Visibility
10 SM
Temperature
01° C
34° F
Dewpoint
01° C
34° F
Humidity
100%
Sky Condition
Clear
VFR

METAR KLWA 030532Z AUTO 00000KT 10SM CLR 01/01 A3012 RMK AO2 T00050005

FAA Disclaimer: The data displayed is for advisory purposes only and is not to be used for flight planning or operations.